Terminal Aerodrome Forecast
Issued by NWS Omaha/Valley, NE

Home | Current Version | Previous Version | Text Only | Print | Product List | Glossary Off
Versions: 1 2 3 4 5 6 7 8 9 10 11 12 13 14 15 16 17 18 19 20 21

000
FTUS43 KOAX 200403 AAA
TAFOFK
TAF AMD
KOFK 200403Z 2004/2024 03014G20KT P6SM -SHRA OVC009
     FM200700 02012KT 4SM -SHRA BR OVC006
     FM201300 35009KT 4SM -SHRA OVC008
     FM201900 33009KT P6SM OVC008=

USA.gov is the U.S. government's official web portal to all federal, state and local government web resources and services.